Time;durP1;ratioP1;P1;durP2;ratioP2;P2;SDS_P1;SDS_P2;PMS_P1;PMS_P2;Temp;Humidity;BMP_temperature;BMP_pressure;BME280_temperature;BME280_humidity;BME280_pressure;Samples;Min_cycle;Max_cycle;Signal;HPM_P1;HPM_P2
2022/09/21 00:00:48;;;;;;;5.03;2.47;;;7.70;99.90;;;;;;5058349;28;20052;-50
2022/09/21 00:03:15;;;;;;;3.85;2.60;;;7.70;99.90;;;;;;5060150;28;20044;-48
2022/09/21 00:05:41;;;;;;;5.57;2.65;;;7.70;99.90;;;;;;5057592;28;20233;-49
2022/09/21 00:08:09;;;;;;;8.43;2.70;;;7.70;99.90;;;;;;5059561;28;20524;-50
2022/09/21 00:10:35;;;;;;;6.05;2.60;;;7.60;99.90;;;;;;5054191;28;20072;-48
2022/09/21 00:13:01;;;;;;;6.07;2.67;;;7.60;99.90;;;;;;5052116;28;20135;-50
2022/09/21 00:15:28;;;;;;;6.93;3.03;;;7.60;99.90;;;;;;5055722;28;20494;-50
2022/09/21 00:17:56;;;;;;;4.65;2.20;;;7.50;99.90;;;;;;5052614;28;20066;-49
2022/09/21 00:20:23;;;;;;;6.22;2.80;;;7.50;99.90;;;;;;5051712;28;20044;-52
2022/09/21 00:22:49;;;;;;;7.72;2.92;;;7.50;99.90;;;;;;5059575;28;20418;-49
2022/09/21 00:25:15;;;;;;;5.13;2.55;;;7.50;99.90;;;;;;5065197;28;20056;-48
2022/09/21 00:27:41;;;;;;;4.13;2.58;;;7.50;99.90;;;;;;5057155;28;20048;-51
2022/09/21 00:30:08;;;;;;;3.60;2.45;;;7.50;99.90;;;;;;5055868;28;20048;-51
2022/09/21 00:32:35;;;;;;;8.23;2.78;;;7.50;99.90;;;;;;5046955;28;20371;-49
2022/09/21 00:35:03;;;;;;;4.88;2.30;;;7.50;99.90;;;;;;5059696;28;20068;-49
2022/09/21 00:37:29;;;;;;;5.07;2.38;;;7.40;99.90;;;;;;5060093;28;20140;-50
2022/09/21 00:39:55;;;;;;;5.80;2.40;;;7.40;99.90;;;;;;5060509;28;20087;-49
2022/09/21 00:42:33;;;;;;;4.88;2.33;;;7.40;99.90;;;;;;5061392;28;20127;-51
2022/09/21 00:44:59;;;;;;;3.80;2.20;;;7.40;99.90;;;;;;5061667;28;20092;-48
2022/09/21 00:47:43;;;;;;;3.88;2.30;;;7.40;99.90;;;;;;5061139;28;20376;-49
2022/09/21 00:50:14;;;;;;;3.85;2.40;;;7.30;99.90;;;;;;5061006;28;20048;-48
2022/09/21 00:52:46;;;;;;;4.90;2.70;;;7.30;99.90;;;;;;5061142;28;20048;-52
2022/09/21 00:55:14;;;;;;;4.00;2.22;;;7.30;99.90;;;;;;5060360;28;20069;-48
2022/09/21 00:57:43;;;;;;;3.05;2.25;;;7.30;99.90;;;;;;5060760;28;20052;-49
2022/09/21 01:00:09;;;;;;;3.88;2.45;;;7.20;99.90;;;;;;5064159;28;20054;-52
2022/09/21 01:02:37;;;;;;;5.30;3.40;;;7.20;99.90;;;;;;5064080;28;20056;-51
2022/09/21 01:05:07;;;;;;;4.43;2.40;;;7.10;99.90;;;;;;5062544;28;20045;-55
2022/09/21 01:07:36;;;;;;;5.05;3.08;;;7.10;99.90;;;;;;5060091;28;20044;-50
2022/09/21 01:10:08;;;;;;;3.53;2.30;;;7.10;99.90;;;;;;5056888;28;20049;-49
2022/09/21 01:12:58;;;;;;;4.22;3.10;;;7.10;99.90;;;;;;5055911;28;20056;-48
2022/09/21 01:15:36;;;;;;;4.30;2.20;;;7.10;99.90;;;;;;5057184;28;20596;-48
2022/09/21 01:18:26;;;;;;;3.97;2.25;;;7.10;99.90;;;;;;5052882;28;20495;-48
2022/09/21 01:20:55;;;;;;;4.90;2.90;;;7.00;99.90;;;;;;5055456;28;20056;-50
2022/09/21 01:23:45;;;;;;;3.42;2.65;;;7.10;99.90;;;;;;5058176;28;20321;-49
2022/09/21 01:26:32;;;;;;;6.45;2.90;;;7.00;99.90;;;;;;5055688;28;20048;-49
2022/09/21 01:29:23;;;;;;;5.22;3.10;;;7.00;99.90;;;;;;5055880;28;20049;-49
2022/09/21 01:31:49;;;;;;;5.13;3.17;;;7.00;99.90;;;;;;5045203;28;20048;-48
2022/09/21 01:34:39;;;;;;;8.35;3.88;;;7.00;99.90;;;;;;5056704;28;20507;-50
2022/09/21 01:37:11;;;;;;;6.70;3.50;;;7.00;99.90;;;;;;5055138;28;20492;-48
2022/09/21 01:39:41;;;;;;;4.57;2.45;;;6.90;99.90;;;;;;5055438;28;20162;-48
2022/09/21 01:42:08;;;;;;;4.05;2.28;;;6.90;99.90;;;;;;5056168;28;20052;-48
2022/09/21 01:44:36;;;;;;;5.78;2.40;;;6.90;99.90;;;;;;5060636;28;20056;-48
2022/09/21 01:47:06;;;;;;;3.65;2.20;;;6.90;99.90;;;;;;5060376;28;20072;-47
2022/09/21 01:49:37;;;;;;;4.38;2.75;;;6.90;99.90;;;;;;5059390;28;20063;-48
2022/09/21 01:52:59;;;;;;;5.18;2.40;;;6.90;99.90;;;;;;5060300;28;20041;-49
2022/09/21 01:55:33;;;;;;;4.30;2.15;;;6.90;99.90;;;;;;4978051;28;20081;-48
2022/09/21 01:58:25;;;;;;;7.38;2.50;;;6.80;99.90;;;;;;4976541;28;20149;-49
2022/09/21 02:00:54;;;;;;;3.78;2.40;;;6.90;99.90;;;;;;4974792;28;20165;-47
2022/09/21 02:03:37;;;;;;;3.58;2.42;;;6.80;99.90;;;;;;4978217;28;20101;-47
2022/09/21 02:06:04;;;;;;;4.35;2.20;;;6.80;99.90;;;;;;4979030;28;20528;-48
2022/09/21 02:08:31;;;;;;;3.88;2.20;;;6.80;99.90;;;;;;4978405;28;20058;-48
2022/09/21 02:11:00;;;;;;;4.15;1.98;;;6.70;99.90;;;;;;4982150;28;20361;-48
2022/09/21 02:13:30;;;;;;;3.58;2.20;;;6.70;99.90;;;;;;4966753;28;20049;-49
2022/09/21 02:16:41;;;;;;;3.22;2.03;;;6.70;99.90;;;;;;4984109;28;20069;-49
2022/09/21 02:19:27;;;;;;;2.65;1.90;;;6.70;99.90;;;;;;4961955;28;20094;-50
2022/09/21 02:22:04;;;;;;;5.03;1.90;;;6.70;99.90;;;;;;4962011;28;20062;-51
2022/09/21 02:24:40;;;;;;;2.28;1.80;;;6.60;99.90;;;;;;4961545;28;20105;-50
2022/09/21 02:27:14;;;;;;;3.45;2.22;;;6.60;99.90;;;;;;4962102;28;20049;-49
2022/09/21 02:29:51;;;;;;;4.22;2.03;;;6.60;99.90;;;;;;4979990;28;20536;-48
2022/09/21 02:32:38;;;;;;;4.18;2.17;;;6.60;99.90;;;;;;4997139;28;20678;-48
2022/09/21 02:35:27;;;;;;;4.38;2.00;;;6.60;99.90;;;;;;4997571;28;20054;-48
2022/09/21 02:38:09;;;;;;;3.72;2.00;;;6.50;99.90;;;;;;4968668;28;20110;-48
2022/09/21 02:40:45;;;;;;;3.67;1.80;;;6.50;99.90;;;;;;4961210;28;20059;-48
2022/09/21 02:43:29;;;;;;;3.10;1.70;;;6.50;99.90;;;;;;4960235;28;20702;-48
2022/09/21 02:46:08;;;;;;;4.57;1.60;;;6.50;99.90;;;;;;4952397;28;20058;-48
2022/09/21 02:48:57;;;;;;;2.53;1.80;;;6.50;99.90;;;;;;4959374;28;20066;-49
2022/09/21 02:51:31;;;;;;;5.45;2.20;;;6.50;99.90;;;;;;4960663;28;20062;-50
2022/09/21 02:54:01;;;;;;;5.55;2.33;;;6.40;99.90;;;;;;4965385;28;20595;-48
2022/09/21 02:56:29;;;;;;;2.80;2.13;;;6.40;99.90;;;;;;5023668;28;20619;-49
2022/09/21 02:58:59;;;;;;;2.30;1.85;;;6.40;99.90;;;;;;5022940;28;20060;-48
2022/09/21 03:01:27;;;;;;;4.32;2.08;;;6.30;99.90;;;;;;5036770;28;20053;-49
2022/09/21 03:03:54;;;;;;;6.55;2.03;;;6.30;99.90;;;;;;5041909;28;20118;-51
2022/09/21 03:06:19;;;;;;;2.15;1.70;;;6.30;99.90;;;;;;5019772;28;20194;-49
2022/09/21 03:08:45;;;;;;;2.28;1.67;;;6.30;99.90;;;;;;5037649;28;20041;-48
2022/09/21 03:11:16;;;;;;;2.40;1.80;;;6.30;99.90;;;;;;5040672;28;20516;-48
2022/09/21 03:13:41;;;;;;;5.60;2.10;;;6.30;99.90;;;;;;5036402;28;20049;-49
2022/09/21 03:16:07;;;;;;;3.97;2.58;;;6.30;99.90;;;;;;5015151;28;20472;-49
2022/09/21 03:18:33;;;;;;;3.20;1.70;;;6.30;99.90;;;;;;5019321;28;20067;-49
2022/09/21 03:20:59;;;;;;;3.55;1.60;;;6.20;99.90;;;;;;5012680;28;20064;-51
2022/09/21 03:23:25;;;;;;;4.55;1.20;;;6.20;99.90;;;;;;5037587;28;20049;-49
2022/09/21 03:25:51;;;;;;;1.80;1.40;;;6.20;99.90;;;;;;5014569;28;20045;-49
2022/09/21 03:28:18;;;;;;;3.17;1.60;;;6.10;99.90;;;;;;5042691;28;20052;-49
2022/09/21 03:30:44;;;;;;;2.42;1.52;;;6.10;99.90;;;;;;5032191;28;20060;-50
2022/09/21 03:33:11;;;;;;;4.72;2.13;;;6.10;99.90;;;;;;5037170;28;20045;-48
2022/09/21 03:35:38;;;;;;;2.50;1.60;;;6.10;99.90;;;;;;5035440;28;20057;-50
2022/09/21 03:38:04;;;;;;;3.78;1.63;;;6.10;99.90;;;;;;5036627;28;20068;-48
2022/09/21 03:40:31;;;;;;;2.78;1.40;;;6.10;99.90;;;;;;5048549;28;20067;-47
2022/09/21 03:42:57;;;;;;;3.33;1.70;;;6.00;99.90;;;;;;5061169;28;20083;-47
2022/09/21 03:45:25;;;;;;;3.85;1.48;;;6.00;99.90;;;;;;5061551;28;20165;-48
2022/09/21 03:47:56;;;;;;;2.78;1.58;;;6.00;99.90;;;;;;5059748;28;20101;-51
2022/09/21 03:50:28;;;;;;;2.55;2.00;;;5.90;99.90;;;;;;5057382;28;20082;-47
2022/09/21 03:52:54;;;;;;;3.17;1.83;;;5.90;99.90;;;;;;5057697;28;20049;-47
2022/09/21 03:55:20;;;;;;;2.90;1.73;;;5.90;99.90;;;;;;5059954;28;20067;-48
2022/09/21 03:57:46;;;;;;;2.03;1.30;;;5.90;99.90;;;;;;5058178;28;20401;-48
2022/09/21 04:00:15;;;;;;;3.90;1.48;;;5.90;99.90;;;;;;5053883;28;20092;-48
2022/09/21 04:02:41;;;;;;;2.72;1.90;;;5.90;99.90;;;;;;5053571;28;20598;-48
2022/09/21 04:05:09;;;;;;;2.97;1.90;;;5.90;99.90;;;;;;5061255;28;20093;-49
2022/09/21 04:07:35;;;;;;;8.02;2.00;;;5.80;99.90;;;;;;5061706;28;20059;-47
2022/09/21 04:10:04;;;;;;;6.10;2.20;;;5.90;99.90;;;;;;5054292;28;20049;-49
2022/09/21 04:12:31;;;;;;;3.45;1.98;;;5.90;99.90;;;;;;5055702;28;20147;-49
2022/09/21 04:14:57;;;;;;;4.70;1.30;;;5.90;99.90;;;;;;5059518;28;20057;-48
2022/09/21 04:17:22;;;;;;;3.22;1.30;;;5.90;99.90;;;;;;5058089;28;20261;-48
2022/09/21 04:19:48;;;;;;;3.30;1.48;;;5.90;99.90;;;;;;5058706;28;20092;-48
2022/09/21 04:22:14;;;;;;;4.38;1.70;;;5.80;99.90;;;;;;5060111;28;20048;-48
2022/09/21 04:24:40;;;;;;;1.85;1.40;;;5.80;99.90;;;;;;5058048;28;20737;-49
2022/09/21 04:27:09;;;;;;;3.40;1.70;;;5.80;99.90;;;;;;5056236;28;20091;-47
2022/09/21 04:29:35;;;;;;;5.57;2.08;;;5.80;99.90;;;;;;5053572;28;20565;-48
2022/09/21 04:32:01;;;;;;;4.03;1.70;;;5.80;99.90;;;;;;5047048;28;20075;-48
2022/09/21 04:34:27;;;;;;;3.70;1.90;;;5.80;99.90;;;;;;5057954;28;20059;-48
2022/09/21 04:36:53;;;;;;;4.95;2.40;;;5.70;99.90;;;;;;5061083;28;20044;-49
2022/09/21 04:39:19;;;;;;;3.63;2.25;;;5.80;99.90;;;;;;5053362;28;20049;-47
2022/09/21 04:41:50;;;;;;;4.45;2.17;;;5.80;99.90;;;;;;5054835;28;20499;-49
2022/09/21 04:44:18;;;;;;;4.30;2.15;;;5.70;99.90;;;;;;5061585;28;20044;-47
2022/09/21 04:46:44;;;;;;;3.75;1.70;;;5.80;99.90;;;;;;5058648;28;20503;-47
2022/09/21 04:49:09;;;;;;;4.85;2.03;;;5.80;99.90;;;;;;5061691;28;20424;-52
2022/09/21 04:51:35;;;;;;;4.53;1.77;;;5.80;99.90;;;;;;5055898;28;20044;-49
2022/09/21 04:54:02;;;;;;;3.45;1.80;;;5.70;99.90;;;;;;5060477;28;20509;-47
2022/09/21 04:56:28;;;;;;;4.32;2.05;;;5.70;99.90;;;;;;5060486;28;20075;-47
2022/09/21 04:58:53;;;;;;;5.03;1.35;;;5.70;99.90;;;;;;5060824;28;20135;-49
2022/09/21 05:01:19;;;;;;;1.52;1.00;;;5.70;99.90;;;;;;5058685;28;20098;-50
2022/09/21 05:03:45;;;;;;;2.13;1.10;;;5.70;99.90;;;;;;5058093;28;20515;-47
2022/09/21 05:06:12;;;;;;;2.13;1.23;;;5.60;99.90;;;;;;5057302;28;20563;-48
2022/09/21 05:11:24;;;;;;;2.25;1.55;;;5.50;99.90;;;;;;5058070;28;20083;-48
2022/09/21 05:13:50;;;;;;;3.55;1.77;;;5.50;99.90;;;;;;5056201;28;20052;-48
2022/09/21 05:16:17;;;;;;;4.28;2.03;;;5.50;99.90;;;;;;5057617;28;20052;-47
2022/09/21 05:18:43;;;;;;;3.75;2.20;;;5.50;99.90;;;;;;5055886;28;20533;-47
2022/09/21 05:21:11;;;;;;;7.82;3.15;;;5.50;99.90;;;;;;5060398;28;20056;-49
2022/09/21 05:23:36;;;;;;;6.75;3.42;;;5.50;99.90;;;;;;5053634;28;20456;-47
2022/09/21 05:26:02;;;;;;;5.28;2.75;;;5.40;99.90;;;;;;5057134;28;20140;-49
2022/09/21 05:28:29;;;;;;;3.53;3.05;;;5.50;99.90;;;;;;5051045;28;20099;-49
2022/09/21 05:31:10;;;;;;;4.57;3.67;;;5.50;99.90;;;;;;5053883;28;20049;-47
2022/09/21 05:33:39;;;;;;;5.15;3.30;;;5.50;99.90;;;;;;5052153;28;20518;-48
2022/09/21 05:36:29;;;;;;;5.95;3.20;;;5.60;99.90;;;;;;5049830;28;20055;-48
2022/09/21 05:38:55;;;;;;;5.50;3.15;;;5.60;99.90;;;;;;5052502;28;20114;-47
2022/09/21 05:41:22;;;;;;;8.00;5.15;;;5.70;99.90;;;;;;5049562;28;20048;-53
2022/09/21 05:43:47;;;;;;;8.98;6.25;;;5.70;99.90;;;;;;5053203;28;20049;-47
2022/09/21 05:46:32;;;;;;;9.82;5.95;;;5.70;99.90;;;;;;5047156;28;20130;-49
2022/09/21 05:49:25;;;;;;;6.45;5.13;;;5.80;99.90;;;;;;5054662;28;20065;-48
2022/09/21 05:51:56;;;;;;;5.95;4.80;;;5.90;99.90;;;;;;4993939;28;20065;-48
2022/09/21 05:54:30;;;;;;;6.78;5.05;;;5.90;99.90;;;;;;5000898;28;20068;-48
2022/09/21 05:57:05;;;;;;;7.60;5.60;;;6.00;99.90;;;;;;4994362;28;20061;-48
2022/09/21 05:59:47;;;;;;;9.40;6.00;;;6.10;99.90;;;;;;4995966;28;20108;-49
2022/09/21 06:02:36;;;;;;;8.43;5.43;;;6.30;99.90;;;;;;4985832;28;20397;-49
2022/09/21 06:05:09;;;;;;;8.55;6.07;;;6.40;99.90;;;;;;4982792;28;20050;-54
2022/09/21 06:07:34;;;;;;;7.37;5.37;;;6.80;99.90;;;;;;4990502;28;20087;-48
2022/09/21 06:10:00;;;;;;;7.63;4.45;;;7.70;99.90;;;;;;4989505;28;20381;-48
2022/09/21 06:12:26;;;;;;;6.97;4.30;;;8.50;99.90;;;;;;4994208;28;20084;-48
2022/09/21 06:14:51;;;;;;;5.90;4.10;;;9.30;99.90;;;;;;4989943;28;20557;-48
2022/09/21 06:17:17;;;;;;;6.07;4.00;;;10.00;99.90;;;;;;4983290;28;20042;-48
2022/09/21 06:19:43;;;;;;;7.30;4.05;;;10.70;99.90;;;;;;4999984;28;20205;-50
2022/09/21 06:22:08;;;;;;;6.55;3.97;;;11.40;99.90;;;;;;4994176;28;20076;-47
2022/09/21 06:24:34;;;;;;;4.97;3.90;;;11.90;99.90;;;;;;4996847;28;20046;-48
2022/09/21 06:27:00;;;;;;;5.38;3.45;;;12.40;99.90;;;;;;4984018;28;20242;-48
2022/09/21 06:29:27;;;;;;;4.10;3.38;;;12.80;99.90;;;;;;5028118;28;20171;-48
2022/09/21 06:31:52;;;;;;;4.97;3.50;;;13.20;99.90;;;;;;5048940;28;20045;-48
2022/09/21 06:34:18;;;;;;;5.88;3.00;;;13.70;99.90;;;;;;5062816;28;20477;-45
2022/09/21 06:36:47;;;;;;;4.65;3.03;;;14.30;99.90;;;;;;5060548;28;20131;-46
2022/09/21 06:39:12;;;;;;;5.03;2.78;;;14.70;99.90;;;;;;5058645;28;20056;-48
2022/09/21 06:41:38;;;;;;;4.93;2.67;;;14.60;99.90;;;;;;5056611;28;20052;-45
2022/09/21 06:44:04;;;;;;;5.03;3.03;;;14.10;99.90;;;;;;5058118;28;20458;-47
2022/09/21 06:46:30;;;;;;;5.43;3.28;;;13.60;99.90;;;;;;5062747;28;20118;-45
2022/09/21 06:48:55;;;;;;;5.38;3.10;;;13.20;99.90;;;;;;5047328;28;20076;-45
2022/09/21 06:51:22;;;;;;;4.35;3.10;;;13.00;99.90;;;;;;5050889;28;20057;-46
2022/09/21 06:53:53;;;;;;;4.22;3.53;;;12.80;99.90;;;;;;5060658;28;20487;-46
2022/09/21 06:56:18;;;;;;;3.17;2.80;;;12.70;99.90;;;;;;5062867;28;20461;-46
2022/09/21 06:58:46;;;;;;;4.82;2.70;;;12.60;99.90;;;;;;5059256;28;20154;-49
2022/09/21 07:01:13;;;;;;;4.15;2.97;;;12.70;99.90;;;;;;5062005;28;20568;-49
2022/09/21 07:03:40;;;;;;;3.88;2.10;;;12.60;99.90;;;;;;5052530;28;20055;-48
2022/09/21 07:06:10;;;;;;;4.60;2.45;;;12.70;99.90;;;;;;5063362;28;20048;-48
2022/09/21 07:08:36;;;;;;;5.28;2.40;;;12.80;99.90;;;;;;5061193;28;20152;-48
2022/09/21 07:11:02;;;;;;;4.35;2.15;;;12.90;99.90;;;;;;5058586;28;20045;-48
2022/09/21 07:13:37;;;;;;;3.88;2.10;;;12.90;99.90;;;;;;5062784;28;20155;-48
2022/09/21 07:16:08;;;;;;;2.92;2.38;;;13.00;99.90;;;;;;5058942;28;20048;-48
2022/09/21 07:18:34;;;;;;;4.82;2.00;;;13.10;99.90;;;;;;5066209;28;20060;-50
2022/09/21 07:21:07;;;;;;;5.65;2.33;;;13.10;99.90;;;;;;5060380;28;20051;-48
2022/09/21 07:23:33;;;;;;;4.18;2.42;;;13.20;99.90;;;;;;5058066;28;20166;-49
2022/09/21 07:26:06;;;;;;;3.63;2.13;;;13.30;99.90;;;;;;5059777;28;20064;-49
2022/09/21 07:28:32;;;;;;;;;;;13.30;99.90;;;;;;5054384;28;20051;-48
2022/09/21 07:31:04;;;;;;;4.60;2.20;;;13.40;99.90;;;;;;5056377;28;19925;-49
2022/09/21 07:33:32;;;;;;;7.47;2.47;;;13.50;99.90;;;;;;5051646;28;20052;-48
2022/09/21 07:35:59;;;;;;;4.85;2.50;;;13.70;99.90;;;;;;5056773;28;20482;-51
2022/09/21 07:38:26;;;;;;;6.10;2.70;;;13.70;99.90;;;;;;5058142;28;20135;-46
2022/09/21 07:41:01;;;;;;;6.00;2.85;;;13.90;99.90;;;;;;5058326;28;20050;-52
2022/09/21 07:43:28;;;;;;;5.47;2.38;;;14.00;99.90;;;;;;5057306;28;20048;-49
2022/09/21 07:45:56;;;;;;;6.75;2.67;;;14.10;99.90;;;;;;5062176;28;20052;-48
2022/09/21 07:48:22;;;;;;;7.30;2.78;;;14.10;99.90;;;;;;5048973;28;20060;-48
2022/09/21 07:50:48;;;;;;;6.32;2.47;;;14.40;99.90;;;;;;5056041;28;20044;-50
2022/09/21 07:53:18;;;;;;;4.35;2.17;;;14.40;99.90;;;;;;5054723;28;20589;-50
2022/09/21 07:55:43;;;;;;;4.65;2.35;;;14.60;99.90;;;;;;5058678;28;20494;-53
2022/09/21 08:00:54;;;;;;;8.38;2.50;;;14.80;99.90;;;;;;5051802;28;20511;-49
2022/09/21 08:03:19;;;;;;;6.47;2.67;;;14.90;99.90;;;;;;5055798;28;20094;-49
2022/09/21 08:05:45;;;;;;;5.75;2.30;;;15.00;99.90;;;;;;5057131;28;20896;-49
2022/09/21 08:08:11;;;;;;;4.65;1.98;;;15.10;99.90;;;;;;5060273;28;20048;-49
2022/09/21 08:10:38;;;;;;;4.50;2.25;;;15.20;99.90;;;;;;5050986;28;20049;-49
2022/09/21 08:13:09;;;;;;;12.95;3.33;;;15.20;99.90;;;;;;5059430;28;20048;-52
2022/09/21 08:15:35;;;;;;;6.00;2.50;;;15.30;99.90;;;;;;5058865;28;21046;-51
2022/09/21 08:18:06;;;;;;;5.95;2.58;;;15.30;99.90;;;;;;5057888;28;20569;-52
2022/09/21 08:20:32;;;;;;;5.72;2.40;;;15.30;99.90;;;;;;5058459;28;20054;-53
2022/09/21 08:22:58;;;;;;;5.35;2.65;;;15.40;99.90;;;;;;5061770;28;20048;-53
2022/09/21 08:25:26;;;;;;;8.32;2.25;;;15.60;99.90;;;;;;5053991;28;20183;-53
2022/09/21 08:27:57;;;;;;;7.30;2.00;;;15.70;99.90;;;;;;5059761;28;20374;-53
2022/09/21 08:30:26;;;;;;;7.60;2.17;;;15.90;99.90;;;;;;5061151;28;20114;-51
2022/09/21 08:32:54;;;;;;;7.20;2.30;;;16.10;99.90;;;;;;5051467;28;20133;-51
2022/09/21 08:35:20;;;;;;;4.85;2.05;;;16.20;99.90;;;;;;5054060;28;20052;-53
2022/09/21 08:37:46;;;;;;;7.05;2.17;;;16.30;99.90;;;;;;5045012;28;20068;-54
2022/09/21 08:40:15;;;;;;;8.45;2.10;;;16.40;99.90;;;;;;5033391;28;20053;-54
2022/09/21 08:42:50;;;;;;;5.15;1.75;;;16.50;99.90;;;;;;5038825;28;20053;-53
2022/09/21 08:45:19;;;;;;;5.57;1.55;;;16.50;99.90;;;;;;5023948;28;20523;-53
2022/09/21 08:47:58;;;;;;;6.93;1.80;;;16.50;99.90;;;;;;5042407;28;20057;-53
2022/09/21 08:50:43;;;;;;;8.70;2.17;;;16.50;99.90;;;;;;5039244;28;20084;-52
2022/09/21 08:53:34;;;;;;;6.93;1.65;;;16.40;99.90;;;;;;5039998;28;20500;-54
2022/09/21 08:56:01;;;;;;;6.22;1.20;;;16.50;99.90;;;;;;5041447;28;20081;-53
2022/09/21 08:58:30;;;;;;;5.10;1.20;;;16.60;99.90;;;;;;5039215;28;20053;-53
2022/09/21 09:01:15;;;;;;;4.80;1.20;;;16.70;99.90;;;;;;5039380;28;20057;-52
2022/09/21 09:04:05;;;;;;;5.90;1.55;;;16.80;99.90;;;;;;5042198;28;20057;-51
2022/09/21 09:06:51;;;;;;;14.48;2.55;;;16.90;99.90;;;;;;5042954;28;20146;-53
2022/09/21 09:09:26;;;;;;;5.60;1.30;;;17.10;99.90;;;;;;5049335;28;20048;-52
2022/09/21 09:12:04;;;;;;;5.63;1.52;;;17.10;99.90;;;;;;5030951;28;20041;-54
2022/09/21 09:15:06;;;;;;;5.90;1.50;;;17.20;99.90;;;;;;5033952;28;20071;-53
2022/09/21 09:17:44;;;;;;;3.65;1.20;;;17.30;99.90;;;;;;5038094;28;20053;-54
2022/09/21 09:20:38;;;;;;;6.57;1.33;;;17.60;99.90;;;;;;5019302;28;20057;-53
2022/09/21 09:23:19;;;;;;;5.15;1.15;;;17.70;99.90;;;;;;5040689;28;20084;-52
2022/09/21 09:25:52;;;;;;;7.13;1.50;;;17.90;99.90;;;;;;5036515;28;20050;-54
2022/09/21 09:28:27;;;;;;;6.68;1.15;;;17.70;99.90;;;;;;5040358;28;20052;-52
2022/09/21 09:31:17;;;;;;;9.40;1.67;;;17.70;99.90;;;;;;5035672;28;20749;-53
2022/09/21 09:34:09;;;;;;;8.50;1.30;;;17.60;99.90;;;;;;5035781;28;20072;-55
2022/09/21 09:36:38;;;;;;;8.10;1.70;;;17.60;99.90;;;;;;5038731;28;20084;-55
2022/09/21 09:39:15;;;;;;;6.20;1.40;;;17.50;99.90;;;;;;5056666;28;20474;-54
2022/09/21 09:41:43;;;;;;;5.35;1.90;;;17.60;99.90;;;;;;5058185;28;20049;-54
2022/09/21 09:44:47;;;;;;;3.80;0.98;;;17.70;99.90;;;;;;5046629;28;20048;-52
2022/09/21 09:47:31;;;;;;;5.43;1.20;;;17.90;99.90;;;;;;4981906;28;20047;-54
2022/09/21 09:50:09;;;;;;;7.13;1.38;;;18.20;99.80;;;;;;4981979;28;20104;-55
2022/09/21 09:52:35;;;;;;;4.40;1.70;;;18.40;99.90;;;;;;4994401;28;20056;-58
2022/09/21 09:55:34;;;;;;;7.10;1.60;;;18.40;99.90;;;;;;4968709;28;20067;-55
2022/09/21 09:58:01;;;;;;;6.28;1.67;;;18.50;99.90;;;;;;4962254;28;20062;-55
2022/09/21 10:00:29;;;;;;;5.68;1.65;;;18.50;99.90;;;;;;4956949;28;20047;-56
2022/09/21 10:03:00;;;;;;;5.05;1.20;;;18.50;99.90;;;;;;4952727;28;20645;-54
2022/09/21 10:05:34;;;;;;;7.97;1.63;;;18.40;99.90;;;;;;4962486;28;20097;-56
2022/09/21 10:08:25;;;;;;;4.90;1.63;;;18.30;99.90;;;;;;5004189;28;20061;-56
2022/09/21 10:10:51;;;;;;;6.18;1.48;;;18.30;99.90;;;;;;5049145;28;20068;-52
2022/09/21 10:13:40;;;;;;;8.27;1.40;;;18.30;99.90;;;;;;5060871;28;20044;-56
2022/09/21 10:16:17;;;;;;;7.20;1.83;;;18.10;99.60;;;;;;5057325;28;20052;-56
2022/09/21 10:18:57;;;;;;;4.43;1.45;;;18.10;99.90;;;;;;5053009;28;20064;-56
2022/09/21 10:21:40;;;;;;;5.35;1.65;;;18.00;99.90;;;;;;5060850;28;20570;-55
2022/09/21 10:24:22;;;;;;;5.80;1.33;;;17.80;99.90;;;;;;5051414;28;20044;-57
2022/09/21 10:26:55;;;;;;;6.57;1.40;;;17.50;99.90;;;;;;5055144;28;20111;-55
2022/09/21 10:29:21;;;;;;;6.80;1.77;;;17.20;99.90;;;;;;5055384;28;20053;-56
2022/09/21 10:32:02;;;;;;;8.00;2.05;;;17.10;99.90;;;;;;5047064;28;20579;-55
2022/09/21 10:35:04;;;;;;;4.57;1.40;;;16.90;99.90;;;;;;5051515;28;20422;-53
2022/09/21 10:37:34;;;;;;;6.22;1.70;;;16.60;99.90;;;;;;5063152;28;20048;-55
2022/09/21 10:40:00;;;;;;;10.20;1.65;;;16.50;99.90;;;;;;5058039;28;20437;-55
2022/09/21 10:42:35;;;;;;;5.28;1.45;;;16.40;99.90;;;;;;5063295;28;20114;-55
2022/09/21 10:45:18;;;;;;;4.93;1.30;;;16.20;99.90;;;;;;5061693;28;20060;-57
2022/09/21 10:48:20;;;;;;;3.78;1.02;;;16.10;99.90;;;;;;5059461;28;20044;-54
2022/09/21 10:50:49;;;;;;;5.25;1.50;;;16.00;99.90;;;;;;4988232;28;20050;-55
2022/09/21 10:53:20;;;;;;;6.32;1.60;;;15.90;99.90;;;;;;4997004;28;20058;-55
2022/09/21 10:56:15;;;;;;;5.10;1.50;;;16.00;99.90;;;;;;4995344;28;20049;-53
2022/09/21 10:59:20;;;;;;;4.25;1.13;;;16.10;99.90;;;;;;5001639;28;20145;-50
2022/09/21 11:01:51;;;;;;;3.72;1.00;;;16.40;99.90;;;;;;5001255;28;20150;-54
2022/09/21 11:04:33;;;;;;;5.75;1.33;;;16.50;99.90;;;;;;5005233;28;20104;-53
2022/09/21 11:07:31;;;;;;;4.78;1.02;;;16.50;99.90;;;;;;5003577;28;20440;-55
2022/09/21 11:10:15;;;;;;;3.63;1.40;;;16.50;99.90;;;;;;4960663;28;20053;-54
2022/09/21 11:12:52;;;;;;;4.78;1.00;;;16.60;99.90;;;;;;4950841;28;20413;-56
2022/09/21 11:15:36;;;;;;;5.88;1.25;;;16.80;99.90;;;;;;4954876;28;20082;-54
2022/09/21 11:18:25;;;;;;;4.85;1.35;;;16.90;99.80;;;;;;4961893;28;20065;-56
2022/09/21 11:21:02;;;;;;;3.83;1.63;;;17.00;98.80;;;;;;4960969;28;20548;-55
2022/09/21 11:24:06;;;;;;;7.97;1.50;;;17.10;99.10;;;;;;4965681;28;20069;-56
2022/09/21 11:26:52;;;;;;;5.30;1.10;;;17.20;99.20;;;;;;5021306;28;20049;-55
2022/09/21 11:29:27;;;;;;;7.18;1.48;;;17.40;99.20;;;;;;5004496;28;20053;-57
2022/09/21 11:32:05;;;;;;;3.33;0.93;;;17.40;97.00;;;;;;5022195;28;20120;-56
2022/09/21 11:34:52;;;;;;;4.88;1.23;;;17.30;96.20;;;;;;5012816;28;20069;-56
2022/09/21 11:37:29;;;;;;;4.65;1.30;;;17.50;97.30;;;;;;5011281;28;20441;-57
2022/09/21 11:40:04;;;;;;;3.45;0.90;;;17.40;97.60;;;;;;5003506;28;21188;-55
2022/09/21 11:42:57;;;;;;;6.35;1.60;;;17.20;97.60;;;;;;5003009;28;20049;-56
2022/09/21 11:45:26;;;;;;;8.15;2.42;;;17.10;99.00;;;;;;5007314;28;20104;-56
2022/09/21 11:48:01;;;;;;;8.60;1.40;;;16.80;99.50;;;;;;5050886;28;20056;-56
2022/09/21 11:50:38;;;;;;;4.13;0.93;;;16.70;99.90;;;;;;5058277;28;20119;-56
2022/09/21 11:53:32;;;;;;;8.93;1.33;;;16.60;97.70;;;;;;5059927;28;20142;-56
2022/09/21 11:56:18;;;;;;;5.40;1.15;;;16.90;98.70;;;;;;5048641;28;20064;-56
2022/09/21 11:59:05;;;;;;;4.45;1.30;;;17.10;99.40;;;;;;5054780;28;20057;-56
2022/09/21 12:01:34;;;;;;;4.05;1.15;;;17.40;99.40;;;;;;5058882;28;20275;-57
2022/09/21 12:04:30;;;;;;;5.78;1.45;;;17.50;99.10;;;;;;5060720;28;20561;-57
2022/09/21 12:07:29;;;;;;;4.32;1.20;;;17.60;98.30;;;;;;5052571;28;20071;-56
2022/09/21 12:10:38;;;;;;;5.75;1.25;;;17.70;97.80;;;;;;5064254;28;20048;-57
2022/09/21 12:13:25;;;;;;;7.22;1.27;;;17.90;98.10;;;;;;5012640;28;20491;-56
2022/09/21 12:16:23;;;;;;;7.45;1.27;;;17.90;97.40;;;;;;5010971;28;20046;-58
2022/09/21 12:19:18;;;;;;;2.88;0.95;;;17.70;98.10;;;;;;4959363;28;20566;-57
2022/09/21 12:21:52;;;;;;;3.88;1.05;;;17.60;98.40;;;;;;4942167;28;20050;-57
2022/09/21 12:24:29;;;;;;;6.18;1.63;;;17.50;99.70;;;;;;4942719;28;20539;-57
2022/09/21 12:27:00;;;;;;;5.43;1.40;;;17.30;99.40;;;;;;4957482;28;20154;-57
2022/09/21 12:29:29;;;;;;;7.03;1.60;;;17.40;98.60;;;;;;4960338;28;20581;-56
2022/09/21 12:32:06;;;;;;;6.07;1.33;;;17.40;99.30;;;;;;4953354;28;20133;-57
2022/09/21 12:34:41;;;;;;;7.47;1.48;;;17.30;99.80;;;;;;4961265;28;20069;-57
2022/09/21 12:37:50;;;;;;;5.95;1.20;;;17.20;99.90;;;;;;4960568;28;20842;-57
2022/09/21 12:40:23;;;;;;;4.70;1.58;;;17.20;99.90;;;;;;4922062;29;20542;-56
2022/09/21 12:43:13;;;;;;;7.75;1.40;;;17.30;99.90;;;;;;4921117;29;20064;-56
2022/09/21 12:45:45;;;;;;;5.38;1.23;;;17.40;99.90;;;;;;4921491;29;20059;-57
2022/09/21 12:48:18;;;;;;;7.85;1.70;;;17.50;99.90;;;;;;4923484;28;20058;-55
2022/09/21 12:51:04;;;;;;;7.45;1.77;;;17.70;99.90;;;;;;4949262;28;20517;-58
2022/09/21 12:53:33;;;;;;;5.63;1.45;;;17.80;98.50;;;;;;4959111;28;20157;-54
2022/09/21 12:56:14;;;;;;;3.55;1.10;;;17.80;98.70;;;;;;4985411;28;20554;-55
2022/09/21 12:59:01;;;;;;;7.55;1.73;;;17.90;98.40;;;;;;4999238;28;20101;-55
2022/09/21 13:01:32;;;;;;;5.60;1.38;;;17.90;99.40;;;;;;4994911;28;20516;-56
2022/09/21 13:03:58;;;;;;;4.00;1.20;;;18.00;99.50;;;;;;4991494;28;20074;-56
2022/09/21 13:06:36;;;;;;;4.28;1.10;;;18.10;98.90;;;;;;4992301;28;20046;-56
2022/09/21 13:09:03;;;;;;;5.78;1.20;;;18.20;99.80;;;;;;4999133;28;20057;-54
2022/09/21 13:11:31;;;;;;;6.88;1.83;;;18.10;98.60;;;;;;4998186;28;20057;-53
2022/09/21 13:14:02;;;;;;;6.78;1.63;;;18.00;99.00;;;;;;4978419;28;20066;-54
2022/09/21 13:16:42;;;;;;;9.48;2.08;;;18.10;99.00;;;;;;5014873;28;20408;-56
2022/09/21 13:19:24;;;;;;;5.57;1.35;;;18.10;97.70;;;;;;5059446;28;20563;-55
2022/09/21 13:22:29;;;;;;;8.77;1.30;;;18.10;99.30;;;;;;5061725;28;20044;-56
2022/09/21 13:25:14;;;;;;;6.45;1.67;;;18.10;98.50;;;;;;5054717;28;20056;-56
2022/09/21 13:28:00;;;;;;;4.68;1.00;;;18.10;98.50;;;;;;5056784;28;20048;-56
2022/09/21 13:30:39;;;;;;;6.45;1.30;;;18.10;98.10;;;;;;5060195;28;20659;-53
2022/09/21 13:33:25;;;;;;;4.07;1.70;;;18.10;97.70;;;;;;5062167;28;20151;-57